Time;durP1;ratioP1;P1;durP2;ratioP2;P2;SDS_P1;SDS_P2;PMS_P1;PMS_P2;Temp;Humidity;BMP_temperature;BMP_pressure;BME280_temperature;BME280_humidity;BME280_pressure;Samples;Min_cycle;Max_cycle;Signal;HPM_P1;HPM_P2
2021/12/21 00:00:15;;;;;;;3.87;1.72;;;;;;;-2.09;69.22;99782.09;1795948;80;20976;-73
2021/12/21 00:02:45;;;;;;;3.27;1.60;;;;;;;-2.16;69.23;99782.05;1795575;79;20931;-73
2021/12/21 00:05:18;;;;;;;3.70;1.95;;;;;;;-2.20;69.24;99789.48;1795422;80;20961;-72
2021/12/21 00:07:41;;;;;;;3.75;2.15;;;;;;;-2.22;69.40;99793.28;1794836;80;21440;-73
2021/12/21 00:10:11;;;;;;;4.08;2.10;;;;;;;-2.25;69.54;99793.66;1795715;80;20983;-72
2021/12/21 00:12:49;;;;;;;3.50;2.20;;;;;;;-2.26;69.77;99795.48;1795538;80;20928;-73
2021/12/21 00:15:21;;;;;;;4.90;2.70;;;;;;;-2.26;70.02;99795.48;1792777;80;21066;-73
2021/12/21 00:25:22;;;;;;;5.22;3.00;;;;;;;-2.22;71.17;99812.91;1795392;80;21525;-73
2021/12/21 00:27:51;;;;;;;6.80;3.20;;;;;;;-2.27;71.50;99818.72;1795653;79;20935;-72
2021/12/21 00:30:19;;;;;;;4.42;2.27;;;;;;;-2.28;71.80;99826.74;1791977;80;20960;-72
2021/12/21 00:32:46;;;;;;;4.17;2.00;;;;;;;-2.30;71.99;99821.72;1765713;80;21537;-72
2021/12/21 00:35:13;;;;;;;4.12;2.00;;;;;;;-2.31;71.79;99827.13;1763927;81;21081;-73
2021/12/21 00:37:41;;;;;;;3.50;1.82;;;;;;;-2.32;71.01;99833.36;1763860;80;21565;-73
2021/12/21 00:40:10;;;;;;;3.40;1.65;;;;;;;-2.36;70.26;99826.39;1763882;81;21106;-72
2021/12/21 00:42:37;;;;;;;3.42;1.90;;;;;;;-2.39;69.61;99838.55;1763554;81;21168;-72
2021/12/21 00:45:06;;;;;;;3.67;1.52;;;;;;;-2.45;69.29;99834.06;1763604;81;37798;-73
2021/12/21 00:47:35;;;;;;;2.80;1.35;;;;;;;-2.50;69.02;99847.72;1763855;81;21074;-73
2021/12/21 00:50:07;;;;;;;2.00;1.17;;;;;;;-2.52;68.98;99846.29;1764001;81;22254;-73
2021/12/21 00:52:33;;;;;;;3.08;1.57;;;;;;;-2.57;68.81;99847.34;1763842;81;21046;-72
2021/12/21 00:55:00;;;;;;;2.50;1.42;;;;;;;-2.63;68.76;99856.27;1764033;81;20939;-73
2021/12/21 00:57:27;;;;;;;3.50;1.30;;;;;;;-2.68;68.75;99854.70;1763858;81;21007;-70
2021/12/21 00:59:53;;;;;;;2.30;1.20;;;;;;;-2.72;68.97;99855.27;1764361;81;21053;-72
2021/12/21 01:02:21;;;;;;;2.83;1.50;;;;;;;-2.75;69.23;99853.83;1763991;81;21561;-72
2021/12/21 01:04:49;;;;;;;3.30;1.70;;;;;;;-2.74;69.70;99861.17;1764173;81;20995;-73
2021/12/21 01:07:26;;;;;;;3.45;1.82;;;;;;;-2.73;69.90;99868.01;1764007;81;20979;-72
2021/12/21 01:17:58;;;;;;;2.55;1.60;;;;;;;-2.74;70.23;99861.98;1731017;83;21064;-72
2021/12/21 01:23:25;;;;;;;3.30;1.60;;;;;;;-2.83;69.71;99876.16;1731065;83;21119;-72
2021/12/21 01:28:11;;;;;;;4.80;1.50;;;;;;;-2.87;69.84;99882.76;1731133;83;21491;-72
2021/12/21 01:31:22;;;;;;;2.83;1.47;;;;;;;-2.89;69.95;99893.91;1729426;83;21072;-73
2021/12/21 01:33:11;;;;;;;2.70;1.35;;;;;;;-2.92;70.12;99883.83;1700722;81;21013;-72
2021/12/21 01:35:33;;;;;;;3.83;1.77;;;;;;;-2.90;70.31;99893.08;1726934;83;21052;-72
2021/12/21 01:38:16;;;;;;;2.95;1.57;;;;;;;-2.87;70.45;99892.70;1730329;83;21071;-72
2021/12/21 01:43:17;;;;;;;4.45;1.80;;;;;;;-2.86;70.64;99897.46;1731315;83;20949;-73
2021/12/21 01:51:07;;;;;;;4.45;1.80;;;;;;;-2.89;71.02;99913.01;1731007;83;20957;-73
2021/12/21 01:53:34;;;;;;;3.22;1.60;;;;;;;-2.92;71.00;99913.88;1731073;83;21523;-72
2021/12/21 01:56:02;;;;;;;3.87;1.92;;;;;;;-2.93;70.82;99913.55;1730753;83;21068;-72
2021/12/21 01:58:29;;;;;;;4.20;1.82;;;;;;;-2.90;70.68;99921.82;1730747;83;21020;-72
2021/12/21 02:00:55;;;;;;;4.12;1.80;;;;;;;-2.90;70.68;99921.82;1731049;83;21044;-73
2021/12/21 02:03:22;;;;;;;5.35;2.45;;;;;;;-2.88;70.98;99930.80;1716616;83;20964;-73
2021/12/21 02:05:49;;;;;;;3.37;1.60;;;;;;;-2.87;70.91;99921.45;1714134;83;21188;-72
2021/12/21 02:08:16;;;;;;;4.00;2.00;;;;;;;-2.86;70.42;99930.13;1713891;83;20988;-73
2021/12/21 02:10:43;;;;;;;3.45;1.42;;;;;;;-2.88;70.04;99931.61;1714601;83;21015;-72
2021/12/21 02:13:10;;;;;;;2.45;1.30;;;;;;;-2.89;69.73;99943.56;1714191;83;21078;-73
2021/12/21 02:15:37;;;;;;;2.42;1.22;;;;;;;-2.91;69.87;99937.70;1714011;82;21023;-72
2021/12/21 02:20:49;;;;;;;3.27;1.62;;;;;;;-2.98;70.15;99946.77;1714143;83;21015;-71
2021/12/21 02:23:18;;;;;;;2.70;1.32;;;;;;;-2.98;70.06;99949.88;1714617;83;21095;-72
2021/12/21 02:28:36;;;;;;;;;;;;;;;-3.00;69.91;99953.16;1716612;83;21073;-71
2021/12/21 02:30:54;;;;;;;3.75;1.57;;;;;;;-3.01;69.85;99959.39;1710451;83;22038;-72
2021/12/21 02:33:21;;;;;;;4.62;1.75;;;;;;;-3.04;69.88;99954.53;1713776;83;22224;-71
2021/12/21 02:35:47;;;;;;;4.12;1.47;;;;;;;-3.02;69.66;99957.28;1722772;83;21063;-73
2021/12/21 02:38:15;;;;;;;3.83;1.60;;;;;;;-3.02;69.66;99957.28;1730882;83;20969;-72
2021/12/21 02:40:42;;;;;;;3.00;1.50;;;;;;;-3.04;69.24;99964.98;1730960;83;21095;-73
2021/12/21 02:43:10;;;;;;;2.95;1.32;;;;;;;-3.07;68.95;99969.56;1730859;83;21551;-73
2021/12/21 02:45:39;;;;;;;3.37;1.50;;;;;;;-3.12;68.60;99969.82;1730646;83;20957;-72
2021/12/21 02:48:06;;;;;;;3.50;1.70;;;;;;;-3.12;68.60;99969.82;1730863;83;21092;-73
2021/12/21 02:50:33;;;;;;;4.97;1.67;;;;;;;-3.17;67.37;99990.44;1730925;83;21060;-73
2021/12/21 02:53:01;;;;;;;3.27;1.60;;;;;;;-3.17;67.37;99990.44;1730786;83;20985;-73
2021/12/21 02:55:28;;;;;;;5.00;1.90;;;;;;;-3.18;67.60;99975.27;1679772;83;21880;-72
2021/12/21 02:57:57;;;;;;;3.42;1.72;;;;;;;-3.18;67.60;99975.27;1730714;83;21508;-73
2021/12/21 03:00:25;;;;;;;4.05;1.80;;;;;;;-3.22;67.24;99998.02;1731109;83;21056;-72
2021/12/21 03:02:52;;;;;;;3.87;1.60;;;;;;;-3.27;66.52;99995.94;1730715;83;21033;-72
2021/12/21 03:05:19;;;;;;;3.40;1.50;;;;;;;-3.27;66.52;99995.94;1731416;83;21118;-72
2021/12/21 03:10:27;;;;;;;2.90;1.45;;;;;;;-3.33;66.35;99994.84;1730946;83;20977;-73
2021/12/21 03:15:39;;;;;;;3.08;1.45;;;;;;;-3.37;66.33;100011.06;1731122;81;21166;-73
2021/12/21 03:18:05;;;;;;;4.20;1.60;;;;;;;-3.41;66.20;100005.89;1730571;83;20962;-71
2021/12/21 03:20:34;;;;;;;2.60;1.40;;;;;;;-3.45;66.00;100002.83;1731146;83;22676;-72
2021/12/21 03:23:01;;;;;;;2.70;1.47;;;;;;;-3.45;66.00;100002.83;1730702;83;20973;-73
2021/12/21 03:25:29;;;;;;;3.15;1.52;;;;;;;-3.44;66.03;100005.75;1730854;83;21029;-73
2021/12/21 03:27:56;;;;;;;3.12;1.30;;;;;;;-3.45;65.93;100004.64;1730663;83;21040;-72
2021/12/21 03:30:23;;;;;;;3.12;1.40;;;;;;;-3.48;65.76;100012.83;1730899;83;20953;-72
2021/12/21 03:32:51;;;;;;;3.37;1.47;;;;;;;-3.51;65.82;100011.88;1730614;83;21161;-71
2021/12/21 03:35:17;;;;;;;3.70;1.80;;;;;;;-3.54;65.85;100015.14;1731023;83;20964;-71
2021/12/21 03:37:44;;;;;;;3.20;1.70;;;;;;;-3.55;65.91;100028.39;1730915;83;21012;-71
2021/12/21 03:40:12;;;;;;;3.90;1.60;;;;;;;-3.55;65.83;100025.28;1731036;83;21060;-72
2021/12/21 03:42:39;;;;;;;2.77;1.57;;;;;;;-3.58;65.79;100030.85;1730842;83;21016;-72
2021/12/21 03:45:09;;;;;;;3.45;1.80;;;;;;;-3.60;65.43;100035.43;1727600;81;21048;-71
2021/12/21 03:47:36;;;;;;;3.75;1.70;;;;;;;-3.63;65.57;100029.26;1730666;83;20965;-71
2021/12/21 03:50:12;;;;;;;4.25;1.30;;;;;;;-3.61;65.55;100027.30;1730566;83;21005;-72
2021/12/21 03:52:35;;;;;;;3.45;1.60;;;;;;;-3.63;65.21;100033.17;1700739;84;21028;-71
2021/12/21 03:55:02;;;;;;;3.45;1.70;;;;;;;-3.61;65.10;100024.68;1701737;84;21644;-73
2021/12/21 03:57:30;;;;;;;4.08;1.75;;;;;;;-3.60;65.23;100019.77;1711989;83;21569;-73
2021/12/21 03:59:57;;;;;;;3.60;1.60;;;;;;;-3.58;65.38;100020.91;1714268;83;20960;-72
2021/12/21 04:02:25;;;;;;;6.70;2.02;;;;;;;-3.56;65.47;100017.11;1713837;83;21016;-73
2021/12/21 04:04:56;;;;;;;4.05;1.90;;;;;;;-3.54;65.57;100019.06;1713936;83;21079;-72
2021/12/21 04:07:22;;;;;;;4.70;2.00;;;;;;;-3.51;65.18;100030.15;1718794;83;21079;-73
2021/12/21 04:09:49;;;;;;;4.62;2.20;;;;;;;-3.55;64.90;100026.59;1730783;83;21540;-72
2021/12/21 04:12:16;;;;;;;3.87;1.90;;;;;;;-3.56;64.94;100035.38;1730610;83;20957;-73
2021/12/21 04:14:43;;;;;;;6.20;2.33;;;;;;;-3.58;65.17;100032.16;1730511;81;21069;-72
2021/12/21 04:17:17;;;;;;;3.90;1.70;;;;;;;-3.61;65.29;100032.52;1730583;81;20993;-73
2021/12/21 04:19:39;;;;;;;4.80;2.15;;;;;;;-3.60;65.23;100038.04;1730034;83;21008;-72
2021/12/21 04:22:05;;;;;;;4.15;2.10;;;;;;;-3.60;65.14;100038.54;1730400;83;21146;-72
2021/12/21 04:24:32;;;;;;;3.55;2.08;;;;;;;-3.60;65.43;100034.13;1730986;83;21088;-72
2021/12/21 04:26:58;;;;;;;4.55;1.80;;;;;;;-3.57;65.48;100046.82;1730514;83;21527;-73
2021/12/21 04:29:25;;;;;;;3.85;1.95;;;;;;;-3.52;65.68;100044.17;1726803;83;21036;-72
2021/12/21 04:31:51;;;;;;;4.90;2.17;;;;;;;-3.50;65.60;100044.81;1701405;84;21043;-73
2021/12/21 04:34:18;;;;;;;3.75;1.90;;;;;;;-3.48;65.69;100050.68;1727814;83;21788;-72
2021/12/21 04:36:45;;;;;;;4.10;1.80;;;;;;;-3.48;65.84;100051.48;1716254;83;21633;-72
2021/12/21 04:39:32;;;;;;;3.47;1.72;;;;;;;-3.49;65.88;100050.34;1713856;83;21012;-73
2021/12/21 04:41:49;;;;;;;3.83;1.67;;;;;;;-3.51;65.98;100057.56;1713850;83;21031;-72
2021/12/21 04:44:15;;;;;;;4.00;1.90;;;;;;;-3.55;66.00;100059.72;1714028;83;20956;-73
2021/12/21 04:46:43;;;;;;;3.55;1.82;;;;;;;-3.55;66.13;100069.66;1714437;83;21819;-72
2021/12/21 04:49:10;;;;;;;3.35;1.80;;;;;;;-3.54;66.06;100084.83;1714115;83;21531;-72
2021/12/21 04:51:36;;;;;;;3.80;2.02;;;;;;;-3.54;66.06;100084.83;1724131;81;21071;-72
2021/12/21 04:54:03;;;;;;;3.83;1.98;;;;;;;-3.51;65.82;100079.75;1730500;83;21013;-72
2021/12/21 04:56:30;;;;;;;6.33;2.72;;;;;;;-3.50;65.97;100063.89;1724773;83;21055;-72
2021/12/21 04:58:57;;;;;;;5.20;2.60;;;;;;;-3.48;66.16;100080.20;1717810;83;21518;-73
2021/12/21 05:01:24;;;;;;;3.55;1.50;;;;;;;-3.46;66.21;100092.56;1728952;83;21000;-73
2021/12/21 05:03:50;;;;;;;3.27;1.40;;;;;;;-3.49;65.83;100092.92;1729644;83;21000;-72
2021/12/21 05:06:19;;;;;;;3.05;1.37;;;;;;;-3.55;66.06;100089.23;1714255;83;20961;-73
2021/12/21 05:08:52;;;;;;;2.75;1.50;;;;;;;-3.58;66.52;100088.78;1713962;83;21015;-72
2021/12/21 05:11:18;;;;;;;3.10;1.05;;;;;;;-3.62;66.44;100093.55;1714019;83;21113;-72
2021/12/21 05:13:43;;;;;;;2.37;0.93;;;;;;;-3.67;66.25;100093.75;1713464;83;20978;-73
2021/12/21 05:16:09;;;;;;;3.02;1.30;;;;;;;-3.72;65.98;100109.10;1722469;82;21530;-72
2021/12/21 05:18:37;;;;;;;1.75;1.00;;;;;;;-3.79;65.91;100094.14;1726586;83;21053;-73
2021/12/21 05:21:04;;;;;;;3.35;1.30;;;;;;;-3.81;65.96;100101.84;1726499;82;21422;-72
2021/12/21 05:23:32;;;;;;;2.22;1.05;;;;;;;-3.83;65.98;100108.53;1730186;83;21471;-72
2021/12/21 05:25:59;;;;;;;3.37;1.52;;;;;;;-3.81;66.09;100103.16;1722059;83;21612;-73
2021/12/21 05:28:25;;;;;;;2.85;1.17;;;;;;;-3.83;66.28;100101.20;1695427;83;21598;-72
2021/12/21 05:30:56;;;;;;;3.05;1.42;;;;;;;-3.86;66.47;100105.45;1720418;83;21078;-72
2021/12/21 05:33:22;;;;;;;2.72;1.37;;;;;;;-3.88;66.82;100107.41;1708970;83;21043;-72
2021/12/21 05:35:49;;;;;;;3.33;1.57;;;;;;;-3.90;67.14;100115.93;1726310;82;21500;-73
2021/12/21 05:38:23;;;;;;;3.77;1.77;;;;;;;-3.91;67.64;100121.64;1726457;83;21451;-72
2021/12/21 05:40:46;;;;;;;3.67;1.45;;;;;;;-3.95;67.85;100128.17;1729125;81;21018;-72
2021/12/21 05:43:14;;;;;;;5.67;1.80;;;;;;;-4.01;68.03;100129.70;1726165;82;21055;-72
2021/12/21 05:45:41;;;;;;;3.67;1.62;;;;;;;-4.09;68.09;100127.61;1672728;83;21038;-71
2021/12/21 05:48:08;;;;;;;3.67;1.70;;;;;;;-4.18;68.35;100136.47;1730439;82;21101;-72
2021/12/21 05:50:34;;;;;;;3.22;1.65;;;;;;;-4.20;68.62;100145.78;1726070;83;21566;-72
2021/12/21 05:53:02;;;;;;;3.02;1.57;;;;;;;-4.20;68.90;100154.91;1730140;83;21054;-73
2021/12/21 05:55:29;;;;;;;3.35;1.45;;;;;;;-4.20;68.92;100160.12;1730666;82;21050;-72
2021/12/21 05:57:55;;;;;;;2.27;1.40;;;;;;;-4.24;68.58;100164.05;1726382;82;21008;-73
2021/12/21 06:00:26;;;;;;;3.15;1.37;;;;;;;-4.33;68.16;100159.86;1707111;83;22137;-73
2021/12/21 06:02:52;;;;;;;3.02;1.22;;;;;;;-4.47;67.65;100162.69;1699966;84;21003;-72
2021/12/21 06:05:20;;;;;;;4.30;1.60;;;;;;;-4.59;67.53;100170.05;1700049;84;21071;-72
2021/12/21 06:07:51;;;;;;;2.00;1.02;;;;;;;-4.68;67.58;100175.45;1699933;84;21083;-72
2021/12/21 06:10:25;;;;;;;3.58;1.60;;;;;;;-4.75;67.67;100174.00;1700092;84;21090;-72
2021/12/21 06:16:09;;;;;;;3.00;1.52;;;;;;;-4.81;67.97;100187.69;1701736;83;21548;-72
2021/12/21 06:26:31;;;;;;;5.58;1.90;;;;;;;-5.00;68.56;100183.64;1714924;83;21925;-72
2021/12/21 06:28:58;;;;;;;4.22;1.98;;;;;;;-5.04;68.65;100197.48;1713970;83;21564;-72
2021/12/21 06:31:25;;;;;;;4.97;2.20;;;;;;;-5.06;68.63;100201.25;1724278;83;21095;-72
2021/12/21 06:33:52;;;;;;;4.40;2.33;;;;;;;-5.06;68.76;100211.66;1730428;83;21064;-72
2021/12/21 06:36:19;;;;;;;4.53;2.08;;;;;;;-4.99;68.77;100227.77;1731197;83;21100;-72
2021/12/21 06:38:46;;;;;;;4.62;2.40;;;;;;;-4.95;68.54;100221.23;1730693;83;21035;-72
2021/12/21 06:41:13;;;;;;;5.80;2.70;;;;;;;-4.92;68.31;100221.41;1730808;83;21001;-72
2021/12/21 06:43:40;;;;;;;5.20;2.42;;;;;;;-4.87;68.04;100230.02;1730637;83;20917;-71
2021/12/21 06:46:29;;;;;;;4.92;2.10;;;;;;;-4.84;67.49;100237.02;1730537;82;21004;-72
2021/12/21 06:51:39;;;;;;;2.02;1.10;;;;;;;-4.79;65.07;100244.36;1730599;83;21500;-72
2021/12/21 06:53:58;;;;;;;2.87;1.32;;;;;;;-4.78;63.94;100235.06;1727897;83;21028;-73
2021/12/21 06:56:26;;;;;;;4.20;0.93;;;;;;;-4.80;63.02;100240.13;1730615;81;21072;-73
2021/12/21 06:58:55;;;;;;;2.15;1.00;;;;;;;-4.81;62.26;100252.31;1730668;83;20980;-72
2021/12/21 07:01:26;;;;;;;3.65;1.50;;;;;;;-4.88;61.74;100246.64;1722691;83;21111;-73
2021/12/21 07:03:52;;;;;;;4.60;1.70;;;;;;;-4.89;61.85;100249.73;1701430;84;21523;-73
2021/12/21 07:06:19;;;;;;;5.67;2.20;;;;;;;-4.88;61.95;100247.45;1701804;84;20973;-71
2021/12/21 07:08:58;;;;;;;3.70;1.52;;;;;;;-4.88;61.81;100254.45;1701015;84;21071;-72
2021/12/21 07:19:34;;;;;;;1.95;1.10;;;;;;;-5.06;61.42;100267.16;1729850;82;21005;-72
2021/12/21 07:22:01;;;;;;;1.92;1.10;;;;;;;-5.09;61.18;100279.69;1721890;83;21119;-73
2021/12/21 07:24:28;;;;;;;2.52;0.93;;;;;;;-5.16;60.79;100253.98;1729346;83;21071;-72
2021/12/21 07:26:55;;;;;;;2.12;1.07;;;;;;;-5.17;60.15;100264.86;1717695;83;21101;-73
2021/12/21 07:29:22;;;;;;;2.35;1.00;;;;;;;-5.22;59.75;100272.36;1722908;83;21537;-72
2021/12/21 07:31:49;;;;;;;2.98;1.22;;;;;;;-5.21;59.14;100284.39;1727278;82;21086;-72
2021/12/21 07:34:16;;;;;;;2.35;1.12;;;;;;;-5.24;58.17;100270.39;1743839;82;21154;-72
2021/12/21 07:36:43;;;;;;;2.10;0.80;;;;;;;-5.29;57.78;100285.70;1743336;82;21039;-73
2021/12/21 07:39:14;;;;;;;3.27;1.42;;;;;;;-5.30;57.93;100280.14;1717034;81;21068;-73
2021/12/21 07:41:41;;;;;;;2.33;1.15;;;;;;;-5.35;57.54;100277.22;1709684;83;21819;-73
2021/12/21 07:44:10;;;;;;;3.15;1.20;;;;;;;-5.36;57.82;100301.59;1712390;83;21031;-73
2021/12/21 07:46:40;;;;;;;2.65;1.02;;;;;;;-5.36;58.02;100296.39;1729256;81;20988;-72
2021/12/21 07:49:08;;;;;;;1.62;0.70;;;;;;;-5.35;56.86;100322.77;1727561;81;21003;-72
2021/12/21 07:51:35;;;;;;;2.60;1.10;;;;;;;-5.39;55.94;100322.77;1729905;83;21547;-72
2021/12/21 07:54:02;;;;;;;2.42;0.98;;;;;;;-5.50;55.37;100323.37;1716947;83;21032;-72
2021/12/21 07:56:28;;;;;;;2.35;1.15;;;;;;;-5.59;55.22;100319.13;1714310;83;21070;-72
2021/12/21 07:58:55;;;;;;;2.47;1.07;;;;;;;-5.64;54.68;100319.27;1714972;83;21015;-73
2021/12/21 08:01:23;;;;;;;2.22;1.10;;;;;;;-5.72;54.16;100335.67;1718287;83;20976;-72
2021/12/21 08:03:53;;;;;;;3.12;1.40;;;;;;;-5.81;54.16;100322.30;1738819;82;20991;-72
2021/12/21 08:06:20;;;;;;;4.40;1.27;;;;;;;-5.86;54.12;100325.34;1745028;82;21135;-73
2021/12/21 08:08:49;;;;;;;3.17;1.07;;;;;;;-5.85;54.18;100333.98;1730637;83;21463;-74
2021/12/21 08:12:12;;;;;;;3.27;1.10;;;;;;;-5.85;53.63;100332.69;1730760;82;21046;-73
2021/12/21 08:13:59;;;;;;;4.22;1.47;;;;;;;-5.87;52.19;100339.33;1728182;83;21534;-73
2021/12/21 08:16:26;;;;;;;4.37;1.50;;;;;;;-5.94;52.05;100343.06;1730928;81;21060;-74
2021/12/21 08:18:53;;;;;;;4.00;1.70;;;;;;;-6.03;52.28;100347.08;1717500;83;21496;-72
2021/12/21 08:21:23;;;;;;;1.62;1.02;;;;;;;-6.08;52.61;100360.55;1714083;83;21051;-73
2021/12/21 08:23:50;;;;;;;3.62;1.40;;;;;;;-6.10;52.67;100349.48;1714053;83;21495;-73
2021/12/21 08:26:17;;;;;;;2.87;1.05;;;;;;;-6.15;52.96;100346.55;1715139;83;21019;-74
2021/12/21 08:28:43;;;;;;;4.08;1.57;;;;;;;-6.15;53.25;100367.34;1718298;82;21038;-73
2021/12/21 08:31:13;;;;;;;3.02;1.10;;;;;;;-6.18;53.11;100367.64;1720035;82;21157;-73
2021/12/21 08:33:42;;;;;;;3.67;1.67;;;;;;;-6.23;52.96;100367.27;1727187;82;20972;-73
2021/12/21 08:36:10;;;;;;;4.00;2.02;;;;;;;-6.31;53.46;100365.44;1727530;83;21083;-73
2021/12/21 08:38:38;;;;;;;3.98;1.60;;;;;;;-6.30;53.57;100364.95;1724597;82;21622;-73
2021/12/21 08:41:05;;;;;;;3.87;1.67;;;;;;;-6.25;53.92;100362.70;1737339;82;21476;-73
2021/12/21 08:43:33;;;;;;;4.33;1.62;;;;;;;-6.18;54.04;100379.34;1736963;82;22220;-73
2021/12/21 08:46:00;;;;;;;4.53;1.70;;;;;;;-6.14;53.75;100372.37;1736759;82;21037;-73
2021/12/21 08:48:27;;;;;;;2.67;1.22;;;;;;;-6.09;53.98;100381.00;1736804;82;21550;-73
2021/12/21 08:50:56;;;;;;;2.50;1.10;;;;;;;-6.05;53.96;100394.05;1736777;82;20968;-72
2021/12/21 08:53:24;;;;;;;3.27;1.30;;;;;;;-6.08;53.87;100372.25;1736687;82;20969;-73
2021/12/21 08:55:51;;;;;;;5.05;1.45;;;;;;;-6.09;54.22;100384.90;1736911;82;21515;-73
2021/12/21 08:58:18;;;;;;;3.15;1.32;;;;;;;-6.11;54.13;100384.25;1736589;82;21546;-73
2021/12/21 09:00:45;;;;;;;3.52;1.37;;;;;;;-6.10;54.47;100398.88;1736974;82;21103;-73
2021/12/21 09:03:13;;;;;;;3.00;1.37;;;;;;;-6.11;54.31;100393.36;1736718;82;21012;-74
2021/12/21 09:05:40;;;;;;;3.33;1.50;;;;;;;-6.12;54.76;100390.41;1737029;82;21066;-75
2021/12/21 09:08:08;;;;;;;2.37;1.17;;;;;;;-6.15;54.71;100398.53;1736690;82;21127;-73
2021/12/21 09:10:35;;;;;;;4.87;1.55;;;;;;;-6.21;54.60;100399.95;1736901;82;21048;-73
2021/12/21 09:13:02;;;;;;;4.80;1.87;;;;;;;-6.28;53.95;100434.51;1726127;82;21107;-73
2021/12/21 09:15:29;;;;;;;2.25;1.22;;;;;;;-6.36;54.07;100405.35;1725017;83;21016;-73
2021/12/21 09:17:57;;;;;;;3.95;1.47;;;;;;;-6.38;54.12;100408.60;1723527;83;21086;-74
2021/12/21 09:20:27;;;;;;;2.98;1.40;;;;;;;-6.39;54.22;100414.75;1714321;83;21506;-73
2021/12/21 09:22:54;;;;;;;3.92;1.70;;;;;;;-6.37;54.26;100411.03;1713970;83;21004;-73
2021/12/21 09:25:21;;;;;;;3.42;1.40;;;;;;;-6.33;54.04;100412.03;1714840;83;21462;-73
2021/12/21 09:27:48;;;;;;;4.30;1.85;;;;;;;-6.32;53.72;100410.57;1701653;84;21056;-73
2021/12/21 09:30:17;;;;;;;2.87;1.37;;;;;;;-6.37;53.40;100431.02;1719435;83;21072;-73
2021/12/21 09:32:44;;;;;;;3.40;1.55;;;;;;;-6.41;53.23;100440.08;1730674;83;21123;-73
2021/12/21 09:35:11;;;;;;;3.08;1.32;;;;;;;-6.46;52.95;100435.31;1730989;83;21663;-73
2021/12/21 09:37:38;;;;;;;4.78;1.27;;;;;;;-6.47;53.01;100425.09;1730786;83;21582;-72
2021/12/21 09:40:10;;;;;;;3.17;1.30;;;;;;;-6.47;53.63;100415.99;1730964;83;21056;-72
2021/12/21 09:42:40;;;;;;;3.27;1.55;;;;;;;-6.46;53.36;100417.61;1730617;83;21040;-73
2021/12/21 09:45:09;;;;;;;3.50;1.47;;;;;;;-6.45;53.28;100414.88;1733934;82;21118;-73
2021/12/21 09:47:36;;;;;;;3.70;1.60;;;;;;;-6.52;52.88;100437.20;1736838;82;20964;-73
2021/12/21 09:50:04;;;;;;;3.05;1.47;;;;;;;-6.58;52.74;100413.15;1717725;82;20979;-73
2021/12/21 09:52:33;;;;;;;3.90;1.65;;;;;;;-6.59;53.26;100408.89;1713880;83;21024;-74
2021/12/21 09:55:01;;;;;;;3.40;1.65;;;;;;;-6.54;53.64;100420.16;1724506;83;21072;-73
2021/12/21 09:57:28;;;;;;;3.25;1.50;;;;;;;-6.52;53.08;100411.23;1730801;83;21142;-73
2021/12/21 09:59:55;;;;;;;3.37;1.62;;;;;;;-6.50;53.37;100415.80;1730535;81;21005;-72
2021/12/21 10:02:25;;;;;;;3.47;1.42;;;;;;;-6.50;52.98;100409.30;1730948;83;21060;-73
2021/12/21 10:04:59;;;;;;;4.15;1.82;;;;;;;-6.58;52.96;100413.61;1729011;83;21773;-72
2021/12/21 10:07:26;;;;;;;3.62;1.70;;;;;;;-6.68;52.79;100415.82;1714226;83;21545;-72
2021/12/21 10:10:13;;;;;;;4.40;1.72;;;;;;;-6.75;52.81;100419.14;1714456;83;21808;-73
2021/12/21 10:12:43;;;;;;;3.02;1.42;;;;;;;-6.88;52.92;100433.32;1713515;83;20999;-73
2021/12/21 10:15:22;;;;;;;3.17;1.65;;;;;;;-6.96;52.91;100430.63;1719522;81;21082;-74
2021/12/21 10:18:00;;;;;;;3.47;1.70;;;;;;;-6.96;52.92;100438.91;1610534;81;10000362;-72
2021/12/21 10:20:45;;;;;;;3.25;1.40;;;;;;;-6.91;52.77;100448.35;1727537;81;21095;-72
2021/12/21 10:23:19;;;;;;;3.25;1.55;;;;;;;-6.85;52.33;100438.19;1733746;82;21170;-73
2021/12/21 10:25:58;;;;;;;5.03;1.60;;;;;;;-6.71;52.16;100424.36;1712203;82;21400;-75
2021/12/21 10:28:51;;;;;;;5.55;1.60;;;;;;;-6.60;51.51;100457.93;1737252;81;21012;-77
2021/12/21 10:31:27;;;;;;;4.22;1.57;;;;;;;-6.54;51.07;100431.36;1715099;82;21087;-75
2021/12/21 10:33:57;;;;;;;4.03;1.55;;;;;;;-6.50;50.56;100434.48;1713218;82;21699;-79
2021/12/21 10:36:25;;;;;;;3.45;1.40;;;;;;;-6.52;50.00;100453.28;1726638;81;21067;-75
2021/12/21 10:38:57;;;;;;;3.33;1.52;;;;;;;-6.61;49.45;100432.92;1723965;81;21684;-75
2021/12/21 10:41:39;;;;;;;2.98;1.40;;;;;;;-6.69;49.41;100460.11;1718492;82;21087;-76
2021/12/21 10:44:10;;;;;;;3.45;1.65;;;;;;;-6.74;49.31;100444.17;1716633;82;21055;-76
2021/12/21 10:46:40;;;;;;;4.05;1.75;;;;;;;-6.72;49.33;100439.63;1719332;83;21985;-76
2021/12/21 10:49:17;;;;;;;4.90;2.00;;;;;;;-6.70;49.35;100451.50;1718308;83;21064;-74
2021/12/21 10:52:04;;;;;;;3.65;1.70;;;;;;;-6.65;49.36;100464.04;1715375;83;21087;-73
2021/12/21 10:54:39;;;;;;;3.52;1.57;;;;;;;-6.66;48.49;100471.50;1724519;83;21076;-74
2021/12/21 10:57:12;;;;;;;4.15;1.80;;;;;;;-6.72;48.03;100468.19;1719816;83;21024;-74
2021/12/21 10:59:43;;;;;;;3.52;1.70;;;;;;;-6.78;48.42;100454.49;1726618;83;21550;-74
2021/12/21 11:02:15;;;;;;;4.30;1.70;;;;;;;-6.77;48.33;100450.95;1716615;83;21185;-75
2021/12/21 11:04:47;;;;;;;2.90;1.50;;;;;;;-6.76;48.98;100463.78;1708694;83;21653;-75
2021/12/21 11:07:25;;;;;;;3.77;1.47;;;;;;;-6.77;48.79;100474.33;1718069;82;21024;-74
2021/12/21 11:09:59;;;;;;;4.45;1.60;;;;;;;-6.87;48.16;100458.31;1700087;84;21108;-75
2021/12/21 11:12:28;;;;;;;3.30;1.37;;;;;;;-6.95;48.68;100447.83;1732062;82;21759;-75
2021/12/21 11:15:00;;;;;;;3.17;1.35;;;;;;;-7.05;48.85;100456.16;1730650;83;21052;-73
2021/12/21 11:17:25;;;;;;;3.30;1.30;;;;;;;-7.11;48.97;100454.98;1720569;82;21016;-75
2021/12/21 11:19:52;;;;;;;2.85;1.30;;;;;;;-7.15;48.93;100468.38;1712804;82;21027;-75
2021/12/21 11:22:21;;;;;;;3.30;1.07;;;;;;;-7.19;48.96;100473.52;1604470;83;10000201;-74
2021/12/21 11:24:48;;;;;;;3.47;1.45;;;;;;;-7.26;48.98;100469.38;1726382;83;21028;-74
2021/12/21 11:27:16;;;;;;;5.22;1.90;;;;;;;-7.26;49.33;100483.66;1728253;82;21570;-74
2021/12/21 11:29:44;;;;;;;4.45;1.70;;;;;;;-7.26;49.31;100482.84;1716181;83;20975;-73
2021/12/21 11:32:11;;;;;;;3.58;1.57;;;;;;;-7.27;49.34;100485.92;1690353;83;21067;-75
2021/12/21 11:38:38;;;;;;;2.83;1.60;;;;;;;-7.31;49.90;100481.47;1714405;83;21059;-73
2021/12/21 11:41:05;;;;;;;3.20;1.20;;;;;;;-7.31;50.27;100481.47;1722881;82;21068;-74
2021/12/21 11:43:57;;;;;;;3.12;1.52;;;;;;;-7.32;50.63;100499.31;1711841;83;21036;-74
2021/12/21 11:46:37;;;;;;;4.70;2.08;;;;;;;-7.32;50.55;100494.13;1638374;82;21074;-76
2021/12/21 11:49:15;;;;;;;4.17;1.80;;;;;;;-7.29;50.70;100504.70;1732208;82;21958;-74
2021/12/21 11:51:42;;;;;;;3.47;1.75;;;;;;;-7.26;51.00;100507.50;1728826;83;21068;-74
2021/12/21 11:54:19;;;;;;;3.12;1.70;;;;;;;-7.26;51.31;100491.45;1725344;83;21104;-74
2021/12/21 11:56:46;;;;;;;3.67;1.50;;;;;;;-7.22;51.17;100508.84;1712189;81;21111;-73
2021/12/21 11:59:14;;;;;;;4.10;1.77;;;;;;;-7.19;51.07;100504.18;1720764;81;21058;-76
2021/12/21 12:01:46;;;;;;;3.33;1.40;;;;;;;-7.15;50.31;100517.69;1744302;82;21131;-74
2021/12/21 12:04:12;;;;;;;2.95;1.37;;;;;;;-7.23;49.30;100515.81;1731632;83;21052;-74
2021/12/21 12:06:48;;;;;;;3.60;1.57;;;;;;;-7.27;49.52;100513.62;1732494;83;20989;-74
2021/12/21 12:09:29;;;;;;;3.47;1.55;;;;;;;-7.30;49.72;100535.52;1733023;82;21114;-74
2021/12/21 12:12:17;;;;;;;3.70;1.50;;;;;;;-7.26;49.82;100532.16;1728358;82;20972;-74
2021/12/21 12:14:47;;;;;;;4.00;1.17;;;;;;;-7.23;49.29;100532.69;1712238;83;21131;-74
2021/12/21 12:17:22;;;;;;;6.00;1.80;;;;;;;-7.23;49.02;100537.06;1709181;83;20981;-74
2021/12/21 12:19:55;;;;;;;4.03;1.98;;;;;;;-7.22;49.13;100535.61;1738587;80;21020;-72
2021/12/21 12:22:34;;;;;;;5.83;1.80;;;;;;;-7.17;49.52;100532.57;1725798;83;20941;-73
2021/12/21 12:25:00;;;;;;;4.28;1.70;;;;;;;-7.11;49.78;100551.47;1745133;81;21094;-72
2021/12/21 12:27:29;;;;;;;3.62;1.40;;;;;;;-7.11;49.40;100541.09;1735581;81;21108;-72
2021/12/21 12:30:11;;;;;;;5.15;1.80;;;;;;;-7.12;48.70;100551.15;1729444;81;21004;-70
2021/12/21 12:32:39;;;;;;;;;;;;;;;-7.17;49.11;100550.74;1728990;81;20993;-74
2021/12/21 12:35:10;;;;;;;3.85;1.55;;;;;;;-7.23;49.58;100553.93;1718492;83;20186;-73
2021/12/21 12:37:52;;;;;;;3.17;1.52;;;;;;;-7.24;49.70;100555.68;1724911;83;21188;-73
2021/12/21 12:40:23;;;;;;;2.95;1.50;;;;;;;-7.26;49.74;100556.80;1725460;83;21150;-74